Time,TemperatureF,DewpointF,PressureIn,WindDirection,WindDirectionDegrees,WindSpeedMPH,WindSpeedGustMPH,Humidity,HourlyPrecipIn,Conditions,Clouds,dailyrainin,SolarRadiationWatts/m^2,SoftwareType,DateUTC
2013-04-29 00:21:00,54.0,18.0,-100.00,ESE,108,6.0,12.0,24,0.00,,,0.00,0.000000,,2013-04-29 06:21:00,
2013-04-29 00:32:00,54.0,18.0,-100.00,ESE,108,6.0,12.0,24,0.00,,,0.00,0.000000,,2013-04-29 06:32:00,
2013-04-29 00:42:00,54.0,18.0,-100.00,ESE,108,6.0,12.0,24,0.00,,,0.00,0.000000,,2013-04-29 06:42:00,
2013-04-29 00:51:00,54.0,18.0,-100.00,ESE,108,6.0,12.0,24,0.00,,,0.00,0.000000,,2013-04-29 06:51:00,
2013-04-29 01:21:00,52.0,18.0,-100.00,East,96,5.0,11.0,26,0.00,,,0.00,0.000000,,2013-04-29 07:21:00,
2013-04-29 01:41:00,52.0,18.0,-100.00,East,96,5.0,11.0,26,0.00,,,0.00,0.000000,,2013-04-29 07:41:00,
2013-04-29 01:52:00,52.0,18.0,-100.00,East,96,5.0,11.0,26,0.00,,,0.00,0.000000,,2013-04-29 07:52:00,
2013-04-29 02:21:00,50.0,21.0,-100.00,East,100,4.0,9.0,32,0.00,,,0.00,0.000000,,2013-04-29 08:21:00,
2013-04-29 02:31:00,50.0,21.0,-100.00,East,100,4.0,9.0,32,0.00,,,0.00,0.000000,,2013-04-29 08:31:00,
2013-04-29 02:42:00,50.0,21.0,-100.00,East,100,4.0,9.0,32,0.00,,,0.00,0.000000,,2013-04-29 08:42:00,
2013-04-29 02:51:00,50.0,21.0,-100.00,East,100,4.0,9.0,32,0.00,,,0.00,0.000000,,2013-04-29 08:51:00,
2013-04-29 03:21:00,48.0,20.0,-100.00,East,97,5.0,9.0,32,-99.99,,,0.00,0.000000,,2013-04-29 09:21:00,
2013-04-29 03:42:00,48.0,20.0,-100.00,East,97,5.0,9.0,32,-99.99,,,0.00,0.000000,,2013-04-29 09:42:00,
2013-04-29 03:52:00,48.0,20.0,-100.00,East,97,5.0,9.0,32,-99.99,,,0.00,0.000000,,2013-04-29 09:52:00,
2013-04-29 04:23:00,49.0,21.0,-100.00,East,99,5.0,9.0,33,0.00,,,0.00,0.000000,,2013-04-29 10:23:00,
2013-04-29 04:32:00,49.0,21.0,-100.00,East,99,5.0,9.0,33,0.00,,,0.00,0.000000,,2013-04-29 10:32:00,
2013-04-29 04:42:00,49.0,21.0,-100.00,East,99,5.0,9.0,33,0.00,,,0.00,0.000000,,2013-04-29 10:42:00,
2013-04-29 04:52:00,49.0,21.0,-100.00,East,99,5.0,9.0,33,0.00,,,0.00,0.000000,,2013-04-29 10:52:00,
2013-04-29 05:21:00,46.0,21.0,-100.00,ESE,108,4.0,8.0,37,0.00,,,0.00,0.000000,,2013-04-29 11:21:00,
2013-04-29 05:32:00,46.0,21.0,-100.00,ESE,108,4.0,8.0,37,0.00,,,0.00,0.000000,,2013-04-29 11:32:00,
2013-04-29 05:41:00,46.0,21.0,-100.00,ESE,108,4.0,8.0,37,0.00,,,0.00,0.000000,,2013-04-29 11:41:00,
2013-04-29 05:52:00,46.0,21.0,-100.00,ESE,108,4.0,8.0,37,0.00,,,0.00,0.000000,,2013-04-29 11:52:00,
2013-04-29 06:22:00,44.0,20.0,-100.00,East,100,5.0,9.0,38,0.00,,,0.00,0.000000,,2013-04-29 12:22:00,
2013-04-29 06:41:00,44.0,20.0,-100.00,East,100,5.0,9.0,38,0.00,,,0.00,0.000000,,2013-04-29 12:41:00,
2013-04-29 06:51:00,44.0,20.0,-100.00,East,100,5.0,9.0,38,0.00,,,0.00,0.000000,,2013-04-29 12:51:00,
2013-04-29 07:21:00,46.0,22.0,-100.00,ESE,107,4.0,7.0,38,-99.99,,,0.00,25.000000,,2013-04-29 13:21:00,
2013-04-29 07:31:00,46.0,22.0,-100.00,ESE,107,4.0,7.0,38,-99.99,,,0.00,25.000000,,2013-04-29 13:31:00,
2013-04-29 07:42:00,46.0,22.0,-100.00,ESE,107,4.0,7.0,38,-99.99,,,0.00,25.000000,,2013-04-29 13:42:00,
2013-04-29 07:52:00,46.0,22.0,-100.00,ESE,107,4.0,7.0,38,-99.99,,,0.00,25.000000,,2013-04-29 13:52:00,
2013-04-29 08:21:00,54.0,25.0,-100.00,ESE,120,3.0,6.0,32,0.00,,,0.00,236.000000,,2013-04-29 14:21:00,
2013-04-29 08:32:00,54.0,25.0,-100.00,ESE,120,3.0,6.0,32,0.00,,,0.00,236.000000,,2013-04-29 14:32:00,
2013-04-29 08:42:00,54.0,25.0,-100.00,ESE,120,3.0,6.0,32,0.00,,,0.00,236.000000,,2013-04-29 14:42:00,
2013-04-29 08:51:00,54.0,25.0,-100.00,ESE,120,3.0,6.0,32,0.00,,,0.00,236.000000,,2013-04-29 14:51:00,
2013-04-29 09:21:00,61.0,25.0,-100.00,East,94,2.0,6.0,25,0.00,,,-99.99,499.000000,,2013-04-29 15:21:00,
2013-04-29 09:33:00,61.0,25.0,-100.00,East,94,2.0,6.0,25,0.00,,,-99.99,499.000000,,2013-04-29 15:33:00,
2013-04-29 09:42:00,61.0,25.0,-100.00,East,94,2.0,6.0,25,0.00,,,-99.99,499.000000,,2013-04-29 15:42:00,
2013-04-29 09:52:00,61.0,25.0,-100.00,East,94,2.0,6.0,25,0.00,,,-99.99,499.000000,,2013-04-29 15:52:00,
2013-04-29 10:23:00,68.0,25.0,-100.00,West,262,3.0,7.0,20,0.00,,,0.00,752.000000,,2013-04-29 16:23:00,
2013-04-29 10:32:00,68.0,25.0,-100.00,West,262,3.0,7.0,20,0.00,,,0.00,752.000000,,2013-04-29 16:32:00,
2013-04-29 10:42:00,68.0,25.0,-100.00,West,262,3.0,7.0,20,0.00,,,0.00,752.000000,,2013-04-29 16:42:00,
2013-04-29 10:52:00,68.0,25.0,-100.00,West,262,3.0,7.0,20,0.00,,,0.00,752.000000,,2013-04-29 16:52:00,
2013-04-29 11:22:00,74.0,22.0,-100.00,NW,313,4.0,7.0,14,0.00,,,0.00,971.000000,,2013-04-29 17:22:00,
2013-04-29 11:32:00,74.0,22.0,-100.00,NW,313,4.0,7.0,14,0.00,,,0.00,971.000000,,2013-04-29 17:32:00,
2013-04-29 11:42:00,74.0,22.0,-100.00,NW,313,4.0,7.0,14,0.00,,,0.00,971.000000,,2013-04-29 17:42:00,
2013-04-29 11:52:00,74.0,22.0,-100.00,NW,313,4.0,7.0,14,0.00,,,0.00,971.000000,,2013-04-29 17:52:00,
2013-04-29 12:22:00,75.0,21.0,-100.00,North,1,6.0,15.0,13,0.00,,,0.00,1143.000000,,2013-04-29 18:22:00,
2013-04-29 12:31:00,75.0,21.0,-100.00,North,1,6.0,15.0,13,0.00,,,0.00,1143.000000,,2013-04-29 18:31:00,
2013-04-29 12:41:00,75.0,21.0,-100.00,North,1,6.0,15.0,13,0.00,,,0.00,1143.000000,,2013-04-29 18:41:00,
2013-04-29 12:51:00,75.0,21.0,-100.00,North,1,6.0,15.0,13,0.00,,,0.00,1143.000000,,2013-04-29 18:51:00,
2013-04-29 13:21:00,78.0,19.0,-100.00,North,354,6.0,12.0,11,0.00,,,0.00,1245.000000,,2013-04-29 19:21:00,
2013-04-29 13:31:00,78.0,19.0,-100.00,North,354,6.0,12.0,11,0.00,,,0.00,1245.000000,,2013-04-29 19:31:00,
2013-04-29 13:41:00,78.0,19.0,-100.00,North,354,6.0,12.0,11,0.00,,,0.00,1245.000000,,2013-04-29 19:41:00,
2013-04-29 13:51:00,78.0,19.0,-100.00,North,354,6.0,12.0,11,0.00,,,0.00,1245.000000,,2013-04-29 19:51:00,
2013-04-29 14:21:00,79.0,10.0,-100.00,WSW,256,10.0,24.0,7,0.00,,,0.00,1265.000000,,2013-04-29 20:21:00,
2013-04-29 14:32:00,79.0,10.0,-100.00,WSW,256,10.0,24.0,7,0.00,,,0.00,1265.000000,,2013-04-29 20:32:00,
2013-04-29 15:21:00,81.0,8.0,-100.00,WSW,240,9.0,28.0,6,0.00,,,0.00,1213.000000,,2013-04-29 21:21:00,
2013-04-29 15:33:00,81.0,8.0,-100.00,WSW,240,9.0,28.0,6,0.00,,,0.00,1213.000000,,2013-04-29 21:33:00,
2013-04-29 15:42:00,81.0,8.0,-100.00,WSW,240,9.0,28.0,6,0.00,,,0.00,1213.000000,,2013-04-29 21:42:00,
2013-04-29 15:53:00,81.0,8.0,-100.00,WSW,240,9.0,28.0,6,0.00,,,0.00,1213.000000,,2013-04-29 21:53:00,
2013-04-29 16:23:00,82.0,8.0,-100.00,WSW,244,8.0,22.0,6,0.00,,,0.00,1069.000000,,2013-04-29 22:23:00,
2013-04-29 16:32:00,82.0,8.0,-100.00,WSW,244,8.0,22.0,6,0.00,,,0.00,1069.000000,,2013-04-29 22:32:00,
2013-04-29 16:42:00,82.0,8.0,-100.00,WSW,244,8.0,22.0,6,0.00,,,0.00,1069.000000,,2013-04-29 22:42:00,
2013-04-29 16:52:00,82.0,8.0,-100.00,WSW,244,8.0,22.0,6,0.00,,,0.00,1069.000000,,2013-04-29 22:52:00,
2013-04-29 17:22:00,82.0,4.0,-100.00,WNW,289,10.0,22.0,5,0.00,,,0.00,861.000000,,2013-04-29 23:22:00,
2013-04-29 17:32:00,82.0,4.0,-100.00,WNW,289,10.0,22.0,5,0.00,,,0.00,861.000000,,2013-04-29 23:32:00,
2013-04-29 17:42:00,82.0,4.0,-100.00,WNW,289,10.0,22.0,5,0.00,,,0.00,861.000000,,2013-04-29 23:42:00,
2013-04-29 17:52:00,82.0,4.0,-100.00,WNW,289,10.0,22.0,5,0.00,,,0.00,861.000000,,2013-04-29 23:52:00,
2013-04-29 18:21:00,81.0,-1.0,-100.00,WNW,298,10.0,21.0,4,0.00,,,0.00,613.000000,,2013-04-30 00:21:00,
2013-04-29 18:41:00,81.0,-1.0,-100.00,WNW,298,10.0,21.0,4,0.00,,,0.00,613.000000,,2013-04-30 00:41:00,
2013-04-29 18:51:00,81.0,-1.0,-100.00,WNW,298,10.0,21.0,4,0.00,,,0.00,613.000000,,2013-04-30 00:51:00,
2013-04-29 20:21:00,68.0,12.0,-100.00,NW,310,3.0,12.0,11,-99.99,,,0.00,43.000000,,2013-04-30 02:21:00,
2013-04-29 20:31:00,68.0,12.0,-100.00,NW,310,3.0,12.0,11,-99.99,,,0.00,43.000000,,2013-04-30 02:31:00,
2013-04-29 20:41:00,68.0,12.0,-100.00,NW,310,3.0,12.0,11,-99.99,,,0.00,43.000000,,2013-04-30 02:41:00,
2013-04-29 20:51:00,68.0,12.0,-100.00,NW,310,3.0,12.0,11,-99.99,,,0.00,43.000000,,2013-04-30 02:51:00,
2013-04-29 21:21:00,66.0,14.0,-100.00,SSE,159,1.0,4.0,13,0.00,,,0.00,0.000000,,2013-04-30 03:21:00,
2013-04-29 21:33:00,66.0,14.0,-100.00,SSE,159,1.0,4.0,13,0.00,,,0.00,0.000000,,2013-04-30 03:33:00,
2013-04-29 21:42:00,66.0,14.0,-100.00,SSE,159,1.0,4.0,13,0.00,,,0.00,0.000000,,2013-04-30 03:42:00,
2013-04-29 21:52:00,66.0,14.0,-100.00,SSE,159,1.0,4.0,13,0.00,,,0.00,0.000000,,2013-04-30 03:52:00,